createdAt,value
2022-10-08T00:00:34.902Z,986.56
2022-10-08T00:01:34.948Z,986.55
2022-10-08T00:02:34.880Z,986.55
2022-10-08T00:03:34.863Z,986.51
2022-10-08T00:04:34.931Z,986.47
2022-10-08T00:05:35.241Z,986.43
2022-10-08T00:06:34.843Z,986.39
2022-10-08T00:07:34.822Z,986.34
2022-10-08T00:08:34.813Z,986.34
2022-10-08T00:09:34.805Z,986.35
2022-10-08T00:10:34.795Z,986.23
2022-10-08T00:11:34.820Z,986.25
2022-10-08T00:12:34.779Z,986.27
2022-10-08T00:13:34.764Z,986.24
2022-10-08T00:14:34.758Z,986.19
2022-10-08T00:15:34.737Z,986.19
2022-10-08T00:16:34.815Z,986.25
2022-10-08T00:17:34.758Z,986.26
2022-10-08T00:18:34.717Z,986.26
2022-10-08T00:19:34.698Z,986.33
2022-10-08T00:20:34.696Z,986.34
2022-10-08T00:21:35.456Z,986.27
2022-10-08T00:22:34.669Z,986.24
2022-10-08T00:23:34.702Z,986.24
2022-10-08T00:24:34.655Z,986.30
2022-10-08T00:25:34.640Z,986.27
2022-10-08T00:26:37.483Z,986.33
2022-10-08T00:27:35.619Z,986.34
2022-10-08T00:28:34.676Z,986.32
2022-10-08T00:29:34.629Z,986.30
2022-10-08T00:30:34.591Z,986.23
2022-10-08T00:31:34.607Z,986.21
2022-10-08T00:32:34.570Z,986.22
2022-10-08T00:33:34.557Z,986.28
2022-10-08T00:34:34.553Z,986.25
2022-10-08T00:35:34.561Z,986.22
2022-10-08T00:36:34.532Z,986.22
2022-10-08T00:37:34.522Z,986.26
2022-10-08T00:38:34.512Z,986.27
2022-10-08T00:39:34.493Z,986.27
2022-10-08T00:40:34.494Z,986.28
2022-10-08T00:41:34.503Z,986.26
2022-10-08T00:42:34.471Z,986.31
2022-10-08T00:43:34.453Z,986.35
2022-10-08T00:44:34.445Z,986.33
2022-10-08T00:45:34.474Z,986.28
2022-10-08T00:46:34.434Z,986.14
2022-10-08T00:47:34.449Z,986.02
2022-10-08T00:48:34.407Z,986.06
2022-10-08T00:49:34.397Z,986.03
2022-10-08T00:50:34.389Z,986.11
2022-10-08T00:51:34.365Z,986.10
2022-10-08T00:52:34.366Z,986.16
2022-10-08T00:53:34.378Z,986.14
2022-10-08T00:54:34.347Z,986.17
2022-10-08T00:55:34.329Z,986.11
2022-10-08T00:56:34.325Z,986.11
2022-10-08T00:57:34.319Z,986.07
2022-10-08T00:58:34.304Z,986.04
2022-10-08T00:59:34.319Z,986.09
2022-10-08T01:00:34.343Z,986.09
2022-10-08T01:01:34.270Z,986.17
2022-10-08T01:02:34.265Z,986.21
2022-10-08T01:03:34.249Z,986.21
2022-10-08T01:04:34.241Z,986.24
2022-10-08T01:05:34.260Z,986.28
2022-10-08T01:06:34.222Z,986.36
2022-10-08T01:07:34.209Z,986.34
2022-10-08T01:08:34.204Z,986.28
2022-10-08T01:09:34.192Z,986.23
2022-10-08T01:10:34.180Z,986.21
2022-10-08T01:11:34.202Z,986.24
2022-10-08T01:12:34.162Z,986.20
2022-10-08T01:13:34.154Z,986.20
2022-10-08T01:14:34.139Z,986.26
2022-10-08T01:15:34.966Z,986.28
2022-10-08T01:16:34.198Z,986.28
2022-10-08T01:17:34.134Z,986.26
2022-10-08T01:18:34.101Z,986.31
2022-10-08T01:19:34.083Z,986.28
2022-10-08T01:20:34.073Z,986.31
2022-10-08T01:21:34.054Z,986.34
2022-10-08T01:22:34.062Z,986.31
2022-10-08T01:23:34.084Z,986.42
2022-10-08T01:24:34.034Z,986.37
2022-10-08T01:25:34.048Z,986.41
2022-10-08T01:26:34.016Z,986.33
2022-10-08T01:27:34.003Z,986.20
2022-10-08T01:28:34.052Z,986.19
2022-10-08T01:29:34.016Z,986.18
2022-10-08T01:30:33.977Z,986.15
2022-10-08T01:31:34.029Z,986.10
2022-10-08T01:32:33.956Z,986.04
2022-10-08T01:33:33.949Z,986.02
2022-10-08T01:34:33.936Z,986.08
2022-10-08T01:35:33.948Z,986.07
2022-10-08T01:36:33.918Z,986.11
2022-10-08T01:37:33.898Z,986.07
2022-10-08T01:38:33.895Z,986.08
2022-10-08T01:39:33.880Z,986.10
2022-10-08T01:40:33.872Z,986.18
2022-10-08T01:41:33.882Z,986.24
2022-10-08T01:42:33.850Z,986.25
2022-10-08T01:43:33.841Z,986.19
2022-10-08T01:44:33.821Z,986.13
2022-10-08T01:45:33.864Z,986.03
2022-10-08T01:46:33.818Z,985.99
2022-10-08T01:47:33.820Z,986.07
2022-10-08T01:48:33.783Z,986.12
2022-10-08T01:49:33.771Z,986.07
2022-10-08T01:50:33.772Z,986.07
2022-10-08T01:51:33.754Z,985.97
2022-10-08T01:52:33.743Z,985.96
2022-10-08T01:53:33.753Z,985.96
2022-10-08T01:54:33.724Z,986.05
2022-10-08T01:55:33.708Z,986.15
2022-10-08T01:56:33.704Z,986.21
2022-10-08T01:57:33.684Z,986.20
2022-10-08T01:58:33.683Z,986.20
2022-10-08T01:59:33.704Z,986.20
2022-10-08T02:00:33.664Z,986.21
2022-10-08T02:01:33.706Z,986.26
2022-10-08T02:02:33.689Z,986.24
2022-10-08T02:03:34.076Z,986.30
2022-10-08T02:04:33.648Z,986.30
2022-10-08T02:05:33.627Z,986.30
2022-10-08T02:06:33.605Z,986.28
2022-10-08T02:07:33.586Z,986.22
2022-10-08T02:08:33.586Z,986.24
2022-10-08T02:09:34.327Z,986.17
2022-10-08T02:10:33.566Z,986.21
2022-10-08T02:11:33.578Z,986.26
2022-10-08T02:12:33.534Z,986.26
2022-10-08T02:13:33.528Z,986.25
2022-10-08T02:14:33.518Z,986.23
2022-10-08T02:15:33.509Z,986.27
2022-10-08T02:16:33.571Z,986.27
2022-10-08T02:17:33.510Z,986.31
2022-10-08T02:18:33.478Z,986.29
2022-10-08T02:19:33.460Z,986.28
2022-10-08T02:20:33.452Z,986.30
2022-10-08T02:21:33.442Z,986.32
2022-10-08T02:22:33.438Z,986.28
2022-10-08T02:23:33.453Z,986.22
2022-10-08T02:24:33.422Z,986.18
2022-10-08T02:25:33.399Z,986.20
2022-10-08T02:26:33.391Z,986.13
2022-10-08T02:27:33.381Z,986.13
2022-10-08T02:28:33.434Z,986.14
2022-10-08T02:29:33.393Z,986.17
2022-10-08T02:30:33.353Z,986.20
2022-10-08T02:31:33.376Z,986.19
2022-10-08T02:32:33.331Z,986.25
2022-10-08T02:33:33.322Z,986.27
2022-10-08T02:34:33.312Z,986.31
2022-10-08T02:35:33.323Z,986.37
2022-10-08T02:36:33.290Z,986.32
2022-10-08T02:37:33.274Z,986.39
2022-10-08T02:38:33.262Z,986.40
2022-10-08T02:39:33.257Z,986.39
2022-10-08T02:40:33.245Z,986.41
2022-10-08T02:41:33.262Z,986.44
2022-10-08T02:42:33.228Z,986.44
2022-10-08T02:43:33.215Z,986.43
2022-10-08T02:44:33.205Z,986.42
2022-10-08T02:45:33.273Z,986.45
2022-10-08T02:46:33.187Z,986.43
2022-10-08T02:47:33.211Z,986.45
2022-10-08T02:48:33.170Z,986.47
2022-10-08T02:49:33.147Z,986.47
2022-10-08T02:50:33.150Z,986.45
2022-10-08T02:51:33.135Z,986.47
2022-10-08T02:52:33.142Z,986.41
2022-10-08T02:53:33.145Z,986.42
2022-10-08T02:54:33.108Z,986.45
2022-10-08T02:55:33.088Z,986.47
2022-10-08T02:56:33.080Z,986.47
2022-10-08T02:57:33.072Z,986.44
2022-10-08T02:58:33.069Z,986.45
2022-10-08T02:59:33.076Z,986.50
2022-10-08T03:00:33.037Z,986.49
2022-10-08T03:01:33.089Z,986.49
2022-10-08T03:02:33.114Z,986.47
2022-10-08T03:03:33.007Z,986.49
2022-10-08T03:04:33.001Z,986.52
2022-10-08T03:05:33.011Z,986.60
2022-10-08T03:06:32.972Z,986.63
2022-10-08T03:07:32.964Z,986.65
2022-10-08T03:08:32.956Z,986.65
2022-10-08T03:09:32.946Z,986.69
2022-10-08T03:10:32.941Z,986.69
2022-10-08T03:11:32.961Z,986.69
2022-10-08T03:12:32.917Z,986.72
2022-10-08T03:13:32.903Z,986.72
2022-10-08T03:14:32.893Z,986.75
2022-10-08T03:15:32.874Z,986.77
2022-10-08T03:16:32.916Z,986.78
2022-10-08T03:17:32.881Z,986.78
2022-10-08T03:18:32.851Z,986.74
2022-10-08T03:19:32.835Z,986.79
2022-10-08T03:20:32.826Z,986.77
2022-10-08T03:21:32.815Z,986.77
2022-10-08T03:22:32.804Z,986.80
2022-10-08T03:23:32.826Z,986.80
2022-10-08T03:24:32.801Z,986.78
2022-10-08T03:25:32.776Z,986.76
2022-10-08T03:26:32.774Z,986.71
2022-10-08T03:27:32.754Z,986.76
2022-10-08T03:28:32.773Z,986.74
2022-10-08T03:29:32.768Z,986.75
2022-10-08T03:30:32.776Z,986.76
2022-10-08T03:31:32.730Z,986.81
2022-10-08T03:32:32.708Z,986.74
2022-10-08T03:33:32.696Z,986.74
2022-10-08T03:34:32.687Z,986.66
2022-10-08T03:35:32.708Z,986.70
2022-10-08T03:36:32.668Z,986.80
2022-10-08T03:37:32.656Z,986.79
2022-10-08T03:38:32.650Z,986.80
2022-10-08T03:39:32.630Z,986.82
2022-10-08T03:40:32.620Z,986.83
2022-10-08T03:41:32.637Z,986.83
2022-10-08T03:42:32.600Z,986.81
2022-10-08T03:43:32.590Z,986.80
2022-10-08T03:44:32.584Z,986.81
2022-10-08T03:45:32.569Z,986.81
2022-10-08T03:46:32.628Z,986.81
2022-10-08T03:47:32.574Z,986.74
2022-10-08T03:48:32.543Z,986.76
2022-10-08T03:49:32.531Z,986.73
2022-10-08T03:50:32.520Z,986.72
2022-10-08T03:51:32.510Z,986.77
2022-10-08T03:52:32.502Z,986.80
2022-10-08T03:53:32.512Z,986.79
2022-10-08T03:54:32.483Z,986.84
2022-10-08T03:55:32.463Z,986.82
2022-10-08T03:56:32.455Z,986.86
2022-10-08T03:57:32.445Z,986.84
2022-10-08T03:58:32.444Z,986.79
2022-10-08T03:59:32.469Z,986.80
2022-10-08T04:00:32.423Z,986.74
2022-10-08T04:01:32.463Z,986.84
2022-10-08T04:02:32.483Z,986.88
2022-10-08T04:03:32.377Z,986.88
2022-10-08T04:04:32.383Z,986.85
2022-10-08T04:05:32.397Z,986.81
2022-10-08T04:06:32.355Z,986.82
2022-10-08T04:07:32.347Z,986.89
2022-10-08T04:08:32.336Z,986.90
2022-10-08T04:09:32.316Z,986.85
2022-10-08T04:10:32.318Z,986.88
2022-10-08T04:11:32.347Z,986.88
2022-10-08T04:12:32.298Z,986.86
2022-10-08T04:13:32.286Z,986.84
2022-10-08T04:14:32.283Z,986.84
2022-10-08T04:15:32.329Z,986.86
2022-10-08T04:16:32.257Z,986.82
2022-10-08T04:17:32.277Z,986.86
2022-10-08T04:18:32.231Z,986.84
2022-10-08T04:19:32.230Z,986.88
2022-10-08T04:20:32.269Z,986.86
2022-10-08T04:21:32.216Z,986.90
2022-10-08T04:22:32.196Z,986.91
2022-10-08T04:23:32.208Z,986.91
2022-10-08T04:24:32.171Z,986.96
2022-10-08T04:25:32.173Z,986.90
2022-10-08T04:26:32.155Z,986.87
2022-10-08T04:27:32.151Z,986.91
2022-10-08T04:28:36.278Z,986.92
2022-10-08T04:29:33.162Z,986.85
2022-10-08T04:30:32.113Z,986.84
2022-10-08T04:31:32.157Z,986.84
2022-10-08T04:32:32.092Z,986.82
2022-10-08T04:33:32.084Z,986.87
2022-10-08T04:34:32.071Z,986.87
2022-10-08T04:35:32.105Z,986.84
2022-10-08T04:36:32.053Z,986.86
2022-10-08T04:37:32.046Z,986.86
2022-10-08T04:38:32.033Z,986.90
2022-10-08T04:39:32.024Z,986.87
2022-10-08T04:40:32.015Z,986.87
2022-10-08T04:41:32.026Z,986.87
2022-10-08T04:42:31.995Z,986.84
2022-10-08T04:43:31.993Z,986.87
2022-10-08T04:44:31.969Z,986.86
2022-10-08T04:45:31.955Z,986.89
2022-10-08T04:46:31.992Z,986.89
2022-10-08T04:47:31.976Z,986.95
2022-10-08T04:48:31.933Z,986.91
2022-10-08T04:49:31.929Z,986.97
2022-10-08T04:50:31.906Z,987.00
2022-10-08T04:51:31.905Z,986.97
2022-10-08T04:52:31.892Z,987.03
2022-10-08T04:53:31.906Z,987.05
2022-10-08T04:54:31.866Z,987.07
2022-10-08T04:55:31.860Z,987.02
2022-10-08T04:56:31.805Z,987.06
2022-10-08T04:57:31.847Z,987.05
2022-10-08T04:58:31.828Z,987.08
2022-10-08T04:59:31.839Z,987.13
2022-10-08T05:00:31.807Z,987.15
2022-10-08T05:01:31.863Z,987.07
2022-10-08T05:02:31.842Z,987.10
2022-10-08T05:03:31.781Z,987.17
2022-10-08T05:04:31.760Z,987.10
2022-10-08T05:05:31.741Z,987.18
2022-10-08T05:06:31.691Z,987.13
2022-10-08T05:07:31.689Z,987.12
2022-10-08T05:08:31.671Z,987.14
2022-10-08T05:09:31.662Z,987.15
2022-10-08T05:10:31.652Z,987.13
2022-10-08T05:11:31.672Z,987.15
2022-10-08T05:12:31.633Z,987.18
2022-10-08T05:13:31.624Z,987.12
2022-10-08T05:14:31.612Z,987.20
2022-10-08T05:15:31.665Z,987.21
2022-10-08T05:16:31.593Z,987.22
2022-10-08T05:17:31.611Z,987.20
2022-10-08T05:18:31.579Z,987.18
2022-10-08T05:19:31.562Z,987.20
2022-10-08T05:20:31.553Z,987.21
2022-10-08T05:21:31.555Z,987.20
2022-10-08T05:22:31.540Z,987.13
2022-10-08T05:23:31.570Z,987.19
2022-10-08T05:24:31.515Z,987.18
2022-10-08T05:25:32.195Z,987.23
2022-10-08T05:26:58.133Z,987.24
2022-10-08T05:27:32.486Z,987.26
2022-10-08T05:28:31.509Z,987.22
2022-10-08T05:29:31.499Z,987.23
2022-10-08T05:30:31.449Z,987.25
2022-10-08T05:31:31.508Z,987.21
2022-10-08T05:32:31.429Z,987.24
2022-10-08T05:33:31.417Z,987.21
2022-10-08T05:34:31.405Z,987.20
2022-10-08T05:35:31.431Z,987.26
2022-10-08T05:36:31.392Z,987.31
2022-10-08T05:37:31.388Z,987.27
2022-10-08T05:38:34.787Z,987.29
2022-10-08T05:39:31.358Z,987.37
2022-10-08T05:40:31.348Z,987.38
2022-10-08T05:41:31.367Z,987.35
2022-10-08T05:42:31.320Z,987.35
2022-10-08T05:43:31.317Z,987.32
2022-10-08T05:44:34.829Z,987.35
2022-10-08T05:45:32.299Z,987.39
2022-10-08T05:46:31.365Z,987.37
2022-10-08T05:47:31.312Z,987.38
2022-10-08T05:48:31.268Z,987.39
2022-10-08T05:49:31.254Z,987.42
2022-10-08T05:50:31.241Z,987.39
2022-10-08T05:51:31.238Z,987.38
2022-10-08T05:52:31.222Z,987.43
2022-10-08T05:53:31.262Z,987.43
2022-10-08T05:54:31.206Z,987.45
2022-10-08T05:55:31.201Z,987.44
2022-10-08T05:56:31.182Z,987.47
2022-10-08T05:57:31.180Z,987.41
2022-10-08T05:58:31.182Z,987.45
2022-10-08T05:59:31.176Z,987.41
2022-10-08T06:00:31.152Z,987.43
2022-10-08T06:01:31.142Z,987.40
2022-10-08T06:02:31.180Z,987.43
2022-10-08T06:03:31.123Z,987.45
2022-10-08T06:04:31.127Z,987.43
2022-10-08T06:05:31.124Z,987.49
2022-10-08T06:06:31.083Z,987.50
2022-10-08T06:07:31.076Z,987.51
2022-10-08T06:08:31.061Z,987.54
2022-10-08T06:09:31.114Z,987.53
2022-10-08T06:10:31.036Z,987.50
2022-10-08T06:11:31.063Z,987.48
2022-10-08T06:12:31.018Z,987.48
2022-10-08T06:13:31.030Z,987.49
2022-10-08T06:14:31.011Z,987.51
2022-10-08T06:15:31.077Z,987.50
2022-10-08T06:16:31.017Z,987.47
2022-10-08T06:17:31.077Z,987.51
2022-10-08T06:18:30.959Z,987.53
2022-10-08T06:19:30.948Z,987.56
2022-10-08T06:20:32.050Z,987.59
2022-10-08T06:21:30.930Z,987.63
2022-10-08T06:22:30.926Z,987.63
2022-10-08T06:23:30.944Z,987.60
2022-10-08T06:24:30.899Z,987.65
2022-10-08T06:25:30.900Z,987.65
2022-10-08T06:26:35.372Z,987.73
2022-10-08T06:27:31.870Z,987.68
2022-10-08T06:28:30.964Z,987.68
2022-10-08T06:29:30.878Z,987.68
2022-10-08T06:30:30.842Z,987.74
2022-10-08T06:31:30.881Z,987.65
2022-10-08T06:32:30.811Z,987.68
2022-10-08T06:33:30.812Z,987.71
2022-10-08T06:34:30.800Z,987.69
2022-10-08T06:35:30.833Z,987.70
2022-10-08T06:36:30.781Z,987.68
2022-10-08T06:37:30.772Z,987.60
2022-10-08T06:38:30.758Z,987.64
2022-10-08T06:39:30.750Z,987.59
2022-10-08T06:40:30.744Z,987.56
2022-10-08T06:41:30.763Z,987.56
2022-10-08T06:42:30.715Z,987.56
2022-10-08T06:43:30.706Z,987.55
2022-10-08T06:44:30.703Z,987.55
2022-10-08T06:45:30.693Z,987.54
2022-10-08T06:46:30.681Z,987.60
2022-10-08T06:47:30.695Z,987.56
2022-10-08T06:48:30.654Z,987.60
2022-10-08T06:49:30.656Z,987.61
2022-10-08T06:50:30.632Z,987.63
2022-10-08T06:51:30.640Z,987.66
2022-10-08T06:52:30.616Z,987.66
2022-10-08T06:53:30.637Z,987.69
2022-10-08T06:54:30.596Z,987.72
2022-10-08T06:55:30.586Z,987.71
2022-10-08T06:56:30.581Z,987.75
2022-10-08T06:57:30.579Z,987.75
2022-10-08T06:58:30.556Z,987.72
2022-10-08T06:59:30.576Z,987.75
2022-10-08T07:00:30.541Z,987.73
2022-10-08T07:01:33.810Z,987.72
2022-10-08T07:02:30.580Z,987.73
2022-10-08T07:03:30.508Z,987.71
2022-10-08T07:04:30.498Z,987.78
2022-10-08T07:05:30.517Z,987.77
2022-10-08T07:06:30.472Z,987.78
2022-10-08T07:07:30.469Z,987.81
2022-10-08T07:08:30.452Z,987.80
2022-10-08T07:09:30.450Z,987.82
2022-10-08T07:10:33.820Z,987.88
2022-10-08T07:11:30.449Z,987.82
2022-10-08T07:12:30.417Z,987.81
2022-10-08T07:13:30.407Z,987.87
2022-10-08T07:14:30.391Z,987.89
2022-10-08T07:15:30.388Z,987.88
2022-10-08T07:16:30.453Z,987.92
2022-10-08T07:17:30.404Z,987.84
2022-10-08T07:18:30.351Z,987.86
2022-10-08T07:19:31.042Z,987.82
2022-10-08T07:20:30.332Z,987.88
2022-10-08T07:21:30.332Z,987.88
2022-10-08T07:22:30.302Z,987.90
2022-10-08T07:23:30.323Z,987.88
2022-10-08T07:24:30.290Z,987.89
2022-10-08T07:25:30.282Z,987.92
2022-10-08T07:26:30.273Z,987.93
2022-10-08T07:27:30.261Z,987.98
2022-10-08T07:28:30.289Z,987.96
2022-10-08T07:29:30.272Z,987.96
2022-10-08T07:30:30.236Z,988.00
2022-10-08T07:31:30.273Z,988.03
2022-10-08T07:32:30.206Z,988.04
2022-10-08T07:33:30.204Z,987.93
2022-10-08T07:34:30.193Z,987.90
2022-10-08T07:35:30.206Z,987.95
2022-10-08T07:36:30.176Z,987.96
2022-10-08T07:37:30.167Z,987.99
2022-10-08T07:38:30.145Z,988.04
2022-10-08T07:39:30.167Z,988.04
2022-10-08T07:40:30.126Z,988.05
2022-10-08T07:41:30.157Z,988.07
2022-10-08T07:42:30.114Z,988.07
2022-10-08T07:43:30.095Z,988.04
2022-10-08T07:44:30.106Z,988.13
2022-10-08T07:45:30.104Z,988.07
2022-10-08T07:46:30.068Z,988.08
2022-10-08T07:47:30.114Z,988.12
2022-10-08T07:48:33.916Z,988.15
2022-10-08T07:49:30.109Z,988.15
2022-10-08T07:50:30.029Z,988.16
2022-10-08T07:51:30.022Z,988.12
2022-10-08T07:52:30.000Z,988.18
2022-10-08T07:53:30.025Z,988.10
2022-10-08T07:54:30.671Z,988.12
2022-10-08T07:55:29.970Z,988.15
2022-10-08T07:56:29.952Z,988.16
2022-10-08T07:57:30.641Z,988.14
2022-10-08T07:58:29.948Z,988.15
2022-10-08T07:59:29.962Z,988.23
2022-10-08T08:00:29.922Z,988.20
2022-10-08T08:01:30.283Z,988.13
2022-10-08T08:02:29.940Z,988.13
2022-10-08T08:03:29.896Z,988.14
2022-10-08T08:04:29.883Z,988.11
2022-10-08T08:05:29.893Z,988.14
2022-10-08T08:06:29.854Z,988.18
2022-10-08T08:07:29.847Z,988.20
2022-10-08T08:08:29.834Z,988.20
2022-10-08T08:09:29.826Z,988.18
2022-10-08T08:10:29.835Z,988.19
2022-10-08T08:11:29.825Z,988.21
2022-10-08T08:12:29.796Z,988.25
2022-10-08T08:13:34.331Z,988.24
2022-10-08T08:14:30.774Z,988.20
2022-10-08T08:15:29.767Z,988.22
2022-10-08T08:16:29.824Z,988.18
2022-10-08T08:17:29.769Z,988.20
2022-10-08T08:18:29.732Z,988.19
2022-10-08T08:19:29.727Z,988.16
2022-10-08T08:20:29.705Z,988.20
2022-10-08T08:21:29.708Z,988.15
2022-10-08T08:22:29.687Z,988.23
2022-10-08T08:23:29.715Z,988.21
2022-10-08T08:24:29.669Z,988.29
2022-10-08T08:25:29.660Z,988.23
2022-10-08T08:26:29.648Z,988.25
2022-10-08T08:27:29.641Z,988.26
2022-10-08T08:28:29.689Z,988.26
2022-10-08T08:29:29.642Z,988.30
2022-10-08T08:30:29.609Z,988.35
2022-10-08T08:31:29.698Z,988.36
2022-10-08T08:32:29.595Z,988.36
2022-10-08T08:33:29.586Z,988.36
2022-10-08T08:34:29.571Z,988.38
2022-10-08T08:35:29.583Z,988.40
2022-10-08T08:36:29.555Z,988.38
2022-10-08T08:37:29.537Z,988.41
2022-10-08T08:38:29.532Z,988.38
2022-10-08T08:39:29.515Z,988.44
2022-10-08T08:40:29.510Z,988.43
2022-10-08T08:41:29.532Z,988.42
2022-10-08T08:42:29.495Z,988.44
2022-10-08T08:43:29.474Z,988.40
2022-10-08T08:44:29.476Z,988.41
2022-10-08T08:45:45.785Z,988.41
2022-10-08T08:46:30.516Z,988.41
2022-10-08T08:47:29.436Z,988.47
2022-10-08T08:48:29.434Z,988.45
2022-10-08T08:49:29.415Z,988.42
2022-10-08T08:50:29.416Z,988.44
2022-10-08T08:51:29.398Z,988.39
2022-10-08T08:52:29.415Z,988.47
2022-10-08T08:53:29.376Z,988.39
2022-10-08T08:54:29.368Z,988.48
2022-10-08T08:55:29.359Z,988.48
2022-10-08T08:56:29.348Z,988.49
2022-10-08T08:57:29.339Z,988.55
2022-10-08T08:58:29.358Z,988.54
2022-10-08T08:59:29.318Z,988.50
2022-10-08T09:00:29.309Z,988.50
2022-10-08T09:01:29.372Z,988.48
2022-10-08T09:02:29.291Z,988.50
2022-10-08T09:03:29.279Z,988.50
2022-10-08T09:04:29.290Z,988.49
2022-10-08T09:05:29.314Z,988.47
2022-10-08T09:06:29.250Z,988.46
2022-10-08T09:07:29.241Z,988.53
2022-10-08T09:08:29.221Z,988.56
2022-10-08T09:09:29.211Z,988.65
2022-10-08T09:10:29.232Z,988.58
2022-10-08T09:11:29.201Z,988.66
2022-10-08T09:12:29.189Z,988.62
2022-10-08T09:13:29.175Z,988.57
2022-10-08T09:14:29.172Z,988.58
2022-10-08T09:15:29.182Z,988.56
2022-10-08T09:16:29.216Z,988.56
2022-10-08T09:17:29.134Z,988.54
2022-10-08T09:18:29.133Z,988.58
2022-10-08T09:19:29.116Z,988.59
2022-10-08T09:20:29.105Z,988.55
2022-10-08T09:21:29.094Z,988.53
2022-10-08T09:22:29.121Z,988.61
2022-10-08T09:23:29.101Z,988.61
2022-10-08T09:24:29.062Z,988.57
2022-10-08T09:25:29.045Z,988.51
2022-10-08T09:26:29.056Z,988.53
2022-10-08T09:27:29.028Z,988.51
2022-10-08T09:28:29.102Z,988.56
2022-10-08T09:29:29.008Z,988.58
2022-10-08T09:30:29.082Z,988.54
2022-10-08T09:31:29.072Z,988.66
2022-10-08T09:32:28.978Z,988.56
2022-10-08T09:33:28.958Z,988.60
2022-10-08T09:34:28.988Z,988.57
2022-10-08T09:35:28.939Z,988.62
2022-10-08T09:36:28.939Z,988.59
2022-10-08T09:37:28.927Z,988.59
2022-10-08T09:38:28.910Z,988.63
2022-10-08T09:39:28.897Z,988.65
2022-10-08T09:40:28.918Z,988.69
2022-10-08T09:41:28.884Z,988.67
2022-10-08T09:42:28.870Z,988.66
2022-10-08T09:43:28.851Z,988.72
2022-10-08T09:44:28.853Z,988.71
2022-10-08T09:45:28.833Z,988.69
2022-10-08T09:46:29.003Z,988.70
2022-10-08T09:47:28.820Z,988.73
2022-10-08T09:48:28.814Z,988.72
2022-10-08T09:49:28.803Z,988.74
2022-10-08T09:50:28.790Z,988.74
2022-10-08T09:51:28.773Z,988.75
2022-10-08T09:52:28.791Z,988.78
2022-10-08T09:53:28.756Z,988.72
2022-10-08T09:54:28.745Z,988.79
2022-10-08T09:55:28.723Z,988.77
2022-10-08T09:56:28.728Z,988.73
2022-10-08T09:57:28.893Z,988.74
2022-10-08T09:58:28.735Z,988.83
2022-10-08T09:59:28.692Z,988.86
2022-10-08T10:00:28.683Z,988.90
2022-10-08T10:01:28.691Z,988.97
2022-10-08T10:02:28.660Z,988.91
2022-10-08T10:03:28.682Z,988.87
2022-10-08T10:04:28.667Z,988.95
2022-10-08T10:05:28.625Z,988.89
2022-10-08T10:06:28.617Z,988.96
2022-10-08T10:07:28.608Z,989.01
2022-10-08T10:08:28.598Z,988.91
2022-10-08T10:09:28.581Z,988.98
2022-10-08T10:10:28.603Z,989.03
2022-10-08T10:11:28.568Z,988.98
2022-10-08T10:12:28.557Z,989.00
2022-10-08T10:13:28.552Z,988.96
2022-10-08T10:14:28.539Z,988.97
2022-10-08T10:15:28.528Z,988.96
2022-10-08T10:16:28.615Z,988.97
2022-10-08T10:17:28.507Z,989.00
2022-10-08T10:18:28.494Z,989.02
2022-10-08T10:19:28.482Z,989.00
2022-10-08T10:20:28.481Z,989.02
2022-10-08T10:21:28.470Z,989.04
2022-10-08T10:22:28.498Z,989.07
2022-10-08T10:23:28.441Z,989.02
2022-10-08T10:24:28.433Z,988.99
2022-10-08T10:25:28.432Z,989.03
2022-10-08T10:26:28.411Z,988.94
2022-10-08T10:27:28.416Z,988.97
2022-10-08T10:28:28.475Z,988.96
2022-10-08T10:29:28.376Z,988.99
2022-10-08T10:30:28.372Z,988.94
2022-10-08T10:31:28.354Z,988.93
2022-10-08T10:32:31.836Z,988.95
2022-10-08T10:33:28.336Z,988.95
2022-10-08T10:34:28.366Z,989.00
2022-10-08T10:35:28.335Z,989.03
2022-10-08T10:36:28.313Z,988.98
2022-10-08T10:37:28.299Z,988.98
2022-10-08T10:38:28.292Z,989.02
2022-10-08T10:39:28.276Z,989.02
2022-10-08T10:40:28.305Z,989.01
2022-10-08T10:41:28.255Z,989.00
2022-10-08T10:42:28.247Z,989.04
2022-10-08T10:43:28.255Z,989.00
2022-10-08T10:44:28.225Z,989.03
2022-10-08T10:45:28.218Z,989.02
2022-10-08T10:46:28.277Z,988.98
2022-10-08T10:47:31.778Z,989.01
2022-10-08T10:48:28.184Z,989.02
2022-10-08T10:49:28.172Z,989.01
2022-10-08T10:50:28.184Z,989.02
2022-10-08T10:51:28.160Z,988.98
2022-10-08T10:52:28.171Z,988.97
2022-10-08T10:53:28.130Z,988.97
2022-10-08T10:54:28.130Z,989.01
2022-10-08T10:55:28.112Z,989.02
2022-10-08T10:56:28.110Z,988.99
2022-10-08T10:57:28.098Z,988.92
2022-10-08T10:58:28.122Z,988.97
2022-10-08T10:59:28.074Z,988.96
2022-10-08T11:00:28.083Z,988.98
2022-10-08T11:01:28.104Z,988.98
2022-10-08T11:02:28.122Z,989.02
2022-10-08T11:03:28.061Z,989.00
2022-10-08T11:04:28.080Z,988.99
2022-10-08T11:05:28.014Z,989.05
2022-10-08T11:06:28.013Z,989.02
2022-10-08T11:07:27.994Z,988.99
2022-10-08T11:08:27.984Z,989.06
2022-10-08T11:09:27.974Z,989.01
2022-10-08T11:10:28.005Z,989.05
2022-10-08T11:11:32.945Z,989.06
2022-10-08T11:12:28.956Z,989.06
2022-10-08T11:13:27.936Z,989.12
2022-10-08T11:14:27.925Z,989.06
2022-10-08T11:15:27.914Z,989.04
2022-10-08T11:16:27.948Z,989.03
2022-10-08T11:17:27.895Z,989.05
2022-10-08T11:18:27.888Z,989.03
2022-10-08T11:19:27.877Z,989.07
2022-10-08T11:20:27.866Z,988.98
2022-10-08T11:21:27.857Z,989.04
2022-10-08T11:22:27.879Z,989.01
2022-10-08T11:23:27.835Z,989.01
2022-10-08T11:24:27.828Z,988.96
2022-10-08T11:25:27.808Z,988.96
2022-10-08T11:26:27.815Z,988.91
2022-10-08T11:27:28.551Z,988.94
2022-10-08T11:28:58.312Z,988.92
2022-10-08T11:29:27.838Z,988.90
2022-10-08T11:30:27.789Z,988.92
2022-10-08T11:31:27.864Z,988.91
2022-10-08T11:32:27.821Z,988.88
2022-10-08T11:33:27.761Z,988.94
2022-10-08T11:34:30.317Z,988.97
2022-10-08T11:35:27.833Z,988.94
2022-10-08T11:36:32.640Z,989.03
2022-10-08T11:37:28.836Z,989.05
2022-10-08T11:38:27.722Z,989.02
2022-10-08T11:39:27.672Z,989.04
2022-10-08T11:40:27.683Z,988.99
2022-10-08T11:41:28.516Z,988.99
2022-10-08T11:42:28.946Z,989.01
2022-10-08T11:43:27.906Z,988.97
2022-10-08T11:44:27.664Z,989.01
2022-10-08T11:45:27.603Z,988.98
2022-10-08T11:46:27.664Z,989.06
2022-10-08T11:47:27.646Z,989.10
2022-10-08T11:48:28.594Z,989.00
2022-10-08T11:49:27.565Z,989.06
2022-10-08T11:50:27.796Z,989.03
2022-10-08T11:51:27.956Z,989.10
2022-10-08T11:52:27.566Z,989.13
2022-10-08T11:53:27.517Z,989.13
2022-10-08T11:54:28.330Z,989.10
2022-10-08T11:55:27.564Z,989.15
2022-10-08T11:56:27.498Z,989.17
2022-10-08T11:57:35.137Z,989.16
2022-10-08T11:58:28.520Z,989.18
2022-10-08T11:59:27.460Z,989.12
2022-10-08T12:00:27.744Z,989.15
2022-10-08T12:01:28.328Z,989.13
2022-10-08T12:02:27.628Z,989.22
2022-10-08T12:03:27.725Z,989.18
2022-10-08T12:04:27.515Z,989.19
2022-10-08T12:05:27.664Z,989.12
2022-10-08T12:06:27.933Z,989.22
2022-10-08T12:07:27.382Z,989.21
2022-10-08T12:08:27.377Z,989.15
2022-10-08T12:09:27.361Z,989.18
2022-10-08T12:10:27.380Z,989.18
2022-10-08T12:11:27.346Z,989.17
2022-10-08T12:12:27.402Z,989.19
2022-10-08T12:13:27.344Z,989.24
2022-10-08T12:14:27.319Z,989.21
2022-10-08T12:15:27.325Z,989.20
2022-10-08T12:16:27.753Z,989.21
2022-10-08T12:17:27.283Z,989.22
2022-10-08T12:18:27.275Z,989.22
2022-10-08T12:19:27.260Z,989.19
2022-10-08T12:20:27.292Z,989.22
2022-10-08T12:21:27.234Z,989.16
2022-10-08T12:22:27.255Z,989.18
2022-10-08T12:23:27.222Z,989.21
2022-10-08T12:24:27.215Z,989.23
2022-10-08T12:25:27.195Z,989.17
2022-10-08T12:26:27.193Z,989.14
2022-10-08T12:27:27.236Z,989.16
2022-10-08T12:28:27.227Z,989.16